createdAt,value
2019-02-09T00:00:45.965Z,100903.88
2019-02-09T00:02:52.934Z,100903.88
2019-02-09T00:04:59.914Z,100896.15
2019-02-09T00:07:12.018Z,100896.60
2019-02-09T00:09:18.856Z,100890.17
2019-02-09T00:11:25.601Z,100883.70
2019-02-09T00:13:32.635Z,100885.42
2019-02-09T00:15:39.895Z,100882.84
2019-02-09T00:17:47.306Z,100880.28
2019-02-09T00:19:53.836Z,100878.99
2019-02-09T00:22:02.026Z,100868.23
2019-02-09T00:24:08.835Z,100871.27
2019-02-09T00:26:16.871Z,100867.87
2019-02-09T00:28:23.455Z,100869.61
2019-02-09T00:30:30.077Z,100857.16
2019-02-09T00:32:38.300Z,100864.09
2019-02-09T00:34:44.927Z,100855.50
2019-02-09T00:36:51.656Z,100857.69
2019-02-09T00:38:58.377Z,100852.97
2019-02-09T00:41:05.366Z,100853.84
2019-02-09T00:43:12.106Z,100855.58
2019-02-09T00:45:30.296Z,100847.42
2019-02-09T00:47:38.467Z,100850.45
2019-02-09T00:49:45.526Z,100852.61
2019-02-09T00:51:52.192Z,100847.89
2019-02-09T00:54:00.158Z,100846.63
2019-02-09T00:56:08.758Z,100836.30
2019-02-09T00:58:16.238Z,100838.91
2019-02-09T01:00:34.699Z,100834.61
2019-02-09T01:02:41.866Z,100832.02
2019-02-09T01:04:49.140Z,100826.40
2019-02-09T01:06:58.630Z,100824.24
2019-02-09T01:09:08.547Z,100825.52
2019-02-09T01:11:15.260Z,100820.31
2019-02-09T01:13:23.331Z,100813.38
2019-02-09T01:15:31.355Z,100812.91
2019-02-09T01:17:37.865Z,100810.34
2019-02-09T01:19:44.319Z,100806.41
2019-02-09T01:21:52.238Z,100801.64
2019-02-09T01:23:58.885Z,100802.52
2019-02-09T01:26:05.987Z,100794.29
2019-02-09T01:28:12.990Z,100793.39
2019-02-09T01:30:22.840Z,100784.77
2019-02-09T01:32:29.802Z,100782.16
2019-02-09T01:34:36.501Z,100783.45
2019-02-09T01:36:47.247Z,100782.14
2019-02-09T01:38:54.098Z,100770.04
2019-02-09T01:41:01.104Z,100767.45
2019-02-09T01:43:07.960Z,100761.42
2019-02-09T01:45:21.642Z,100763.11
2019-02-09T01:47:28.305Z,100758.34
2019-02-09T01:49:35.339Z,100751.44
2019-02-09T01:51:42.186Z,100751.41
2019-02-09T01:53:49.397Z,100750.11
2019-02-09T01:55:57.538Z,100741.92
2019-02-09T01:58:04.066Z,100746.22
2019-02-09T02:00:23.544Z,100743.64
2019-02-09T02:02:32.278Z,100732.86
2019-02-09T02:04:39.385Z,100720.36
2019-02-09T02:06:46.286Z,100728.98
2019-02-09T02:08:53.189Z,100722.52
2019-02-09T02:10:59.763Z,100707.05
2019-02-09T02:13:09.535Z,100709.62
2019-02-09T02:15:19.955Z,100707.49
2019-02-09T02:17:26.835Z,100701.03
2019-02-09T02:19:33.575Z,100701.90
2019-02-09T02:21:41.652Z,100700.19
2019-02-09T02:23:48.581Z,100689.44
2019-02-09T02:25:55.306Z,100691.14
2019-02-09T02:28:03.256Z,100691.14
2019-02-09T02:30:23.252Z,100679.54
2019-02-09T02:32:30.190Z,100670.92
2019-02-09T02:34:36.861Z,100675.71
2019-02-09T02:36:45.501Z,100668.38
2019-02-09T02:38:52.129Z,100661.91
2019-02-09T02:41:00.520Z,100662.81
2019-02-09T02:43:07.671Z,100665.80
2019-02-09T02:45:17.840Z,100668.39
2019-02-09T02:47:24.646Z,100664.53
2019-02-09T02:49:31.418Z,100661.11
2019-02-09T02:51:38.081Z,100650.34
2019-02-09T02:53:47.558Z,100644.75
2019-02-09T02:55:54.411Z,100645.63
2019-02-09T02:58:01.702Z,100641.33
2019-02-09T03:00:13.938Z,100637.48
2019-02-09T03:02:20.578Z,100640.50
2019-02-09T03:04:27.508Z,100640.49
2019-02-09T03:06:35.526Z,100632.31
2019-02-09T03:10:56.967Z,100627.59
2019-02-09T03:13:04.933Z,100618.59
2019-02-09T03:15:15.715Z,100614.28
2019-02-09T03:17:24.383Z,100620.34
2019-02-09T03:19:31.132Z,100615.18
2019-02-09T03:21:37.908Z,100616.91
2019-02-09T03:23:44.792Z,100611.33
2019-02-09T03:25:51.416Z,100613.93
2019-02-09T03:27:58.475Z,100613.06
2019-02-09T03:30:11.133Z,100615.66
2019-02-09T03:32:19.344Z,100609.19
2019-02-09T03:34:26.021Z,100601.42
2019-02-09T03:36:34.232Z,100600.14
2019-02-09T03:38:42.555Z,100600.61
2019-02-09T03:40:49.347Z,100605.36
2019-02-09T03:42:56.050Z,100609.25
2019-02-09T03:45:05.515Z,100604.09
2019-02-09T03:47:12.344Z,100604.08
2019-02-09T03:49:19.047Z,100601.08
2019-02-09T03:51:26.285Z,100598.49
2019-02-09T03:53:33.034Z,100598.92
2019-02-09T03:55:39.822Z,100598.06
2019-02-09T03:57:46.547Z,100592.48
2019-02-09T03:59:56.342Z,100590.76
2019-02-09T04:02:04.969Z,100579.55
2019-02-09T04:04:12.048Z,100582.13
2019-02-09T04:06:18.921Z,100578.69
2019-02-09T04:08:25.392Z,100576.11
2019-02-09T04:10:33.474Z,100572.67
2019-02-09T04:12:40.473Z,100565.34
2019-02-09T04:14:47.319Z,100564.47
2019-02-09T04:16:54.398Z,100559.73
2019-02-09T04:19:02.018Z,100561.03
2019-02-09T04:21:09.695Z,100562.73
2019-02-09T04:23:16.827Z,100556.27
2019-02-09T04:25:24.910Z,100554.56
2019-02-09T04:27:31.770Z,100540.31
2019-02-09T04:29:38.730Z,100541.16
2019-02-09T04:31:48.253Z,100537.72
2019-02-09T04:33:55.335Z,100536.45
2019-02-09T04:36:03.155Z,100534.71
2019-02-09T04:38:10.209Z,100526.08
2019-02-09T04:40:32.424Z,100520.89
2019-02-09T04:42:42.403Z,100517.03
2019-02-09T04:44:49.790Z,100517.00
2019-02-09T04:46:56.610Z,100513.14
2019-02-09T04:49:04.288Z,100505.37
2019-02-09T04:51:11.439Z,100491.58
2019-02-09T04:53:20.361Z,100487.26
2019-02-09T04:55:28.476Z,100481.23
2019-02-09T04:57:35.291Z,100479.52
2019-02-09T04:59:43.492Z,100481.25
2019-02-09T05:01:50.151Z,100472.60
2019-02-09T05:03:56.998Z,100478.22
2019-02-09T05:06:04.215Z,100464.00
2019-02-09T05:08:10.997Z,100466.15
2019-02-09T05:10:20.577Z,100454.08
2019-02-09T05:12:27.230Z,100460.97
2019-02-09T05:14:36.157Z,100456.22
2019-02-09T05:16:42.890Z,100451.04
2019-02-09T05:18:51.048Z,100441.56
2019-02-09T05:20:58.051Z,100439.39
2019-02-09T05:23:04.959Z,100437.67
2019-02-09T05:25:14.200Z,100435.95
2019-02-09T05:27:20.913Z,100439.42
2019-02-09T05:29:27.380Z,100438.13
2019-02-09T05:31:33.783Z,100435.95
2019-02-09T05:33:42.101Z,100434.65
2019-02-09T05:35:48.929Z,100429.05
2019-02-09T05:37:57.967Z,100428.63
2019-02-09T05:40:11.525Z,100427.73
2019-02-09T05:42:18.491Z,100423.86
2019-02-09T05:44:25.496Z,100426.45
2019-02-09T05:46:33.083Z,100423.43
2019-02-09T05:48:39.891Z,100419.94
2019-02-09T05:50:49.203Z,100408.25
2019-02-09T05:52:57.578Z,100412.92
2019-02-09T05:55:04.518Z,100411.17
2019-02-09T05:57:11.312Z,100413.30
2019-02-09T05:59:18.122Z,100412.86
2019-02-09T06:01:31.863Z,100409.44
2019-02-09T06:03:34.462Z,100401.25
2019-02-09T06:05:43.638Z,100411.67
2019-02-09T06:07:50.393Z,100402.45
2019-02-09T06:10:00.054Z,100399.44
2019-02-09T06:12:08.082Z,100406.42
2019-02-09T06:14:14.672Z,100400.81
2019-02-09T06:16:21.471Z,100406.83
2019-02-09T06:18:29.618Z,100408.06
2019-02-09T06:20:37.703Z,100399.04
2019-02-09T06:22:44.342Z,100408.57
2019-02-09T06:24:52.561Z,100404.31
2019-02-09T06:26:59.448Z,100401.73
2019-02-09T06:29:10.929Z,100397.44
2019-02-09T06:31:17.511Z,100394.42
2019-02-09T06:33:24.498Z,100391.88
2019-02-09T06:35:34.572Z,100386.28
2019-02-09T06:37:44.442Z,100386.72
2019-02-09T06:39:54.392Z,100381.54
2019-02-09T06:42:03.271Z,100373.37
2019-02-09T06:44:10.091Z,100371.64
2019-02-09T06:46:28.602Z,100374.67
2019-02-09T06:48:36.542Z,100365.63
2019-02-09T06:50:44.533Z,100361.75
2019-02-09T06:52:51.248Z,100351.39
2019-02-09T06:54:59.131Z,100360.03
2019-02-09T06:57:05.673Z,100357.45
2019-02-09T06:59:12.751Z,100354.84
2019-02-09T07:01:19.743Z,100351.42
2019-02-09T07:03:26.542Z,100347.52
2019-02-09T07:05:34.302Z,100344.06
2019-02-09T07:07:40.682Z,100342.31
2019-02-09T07:09:53.789Z,100337.11
2019-02-09T07:12:04.142Z,100335.82
2019-02-09T07:14:12.662Z,100329.78
2019-02-09T07:16:19.491Z,100323.71
2019-02-09T07:18:26.371Z,100324.15
2019-02-09T07:20:32.953Z,100311.98
2019-02-09T07:22:39.763Z,100320.18
2019-02-09T07:24:46.832Z,100300.12
2019-02-09T07:26:54.431Z,100297.06
2019-02-09T07:29:01.242Z,100310.45
2019-02-09T07:31:07.992Z,100305.59
2019-02-09T07:33:15.025Z,100307.48
2019-02-09T07:35:21.832Z,100306.16
2019-02-09T07:37:28.652Z,100300.14
2019-02-09T07:39:35.037Z,100301.03
2019-02-09T07:41:41.802Z,100292.27
2019-02-09T07:43:48.449Z,100289.48
2019-02-09T07:45:55.167Z,100281.44
2019-02-09T07:48:02.231Z,100285.75
2019-02-09T07:50:16.073Z,100285.88
2019-02-09T07:52:23.022Z,100289.02
2019-02-09T07:54:29.832Z,100283.48
2019-02-09T07:56:37.869Z,100280.45
2019-02-09T07:58:44.704Z,100280.38
2019-02-09T08:00:55.913Z,100275.65
2019-02-09T08:03:03.554Z,100265.65
2019-02-09T08:05:15.292Z,100259.97
2019-02-09T08:07:22.353Z,100265.19
2019-02-09T08:09:29.421Z,100251.70
2019-02-09T08:11:36.481Z,100254.72
2019-02-09T08:13:43.474Z,100262.01
2019-02-09T08:15:50.090Z,100254.95
2019-02-09T08:17:57.058Z,100254.95
2019-02-09T08:20:15.990Z,100250.53
2019-02-09T08:22:23.458Z,100249.56
2019-02-09T08:24:30.760Z,100246.96
2019-02-09T08:26:37.864Z,100245.16
2019-02-09T08:28:47.590Z,100243.50
2019-02-09T08:30:56.004Z,100247.00
2019-02-09T08:33:02.760Z,100242.20
2019-02-09T08:35:10.020Z,100238.59
2019-02-09T08:37:17.220Z,100233.67
2019-02-09T08:39:25.115Z,100230.56
2019-02-09T08:41:31.839Z,100223.51
2019-02-09T08:43:38.550Z,100220.25
2019-02-09T08:45:45.609Z,100229.50
2019-02-09T08:47:53.051Z,100222.55
2019-02-09T08:49:59.847Z,100232.92
2019-02-09T08:52:08.222Z,100225.58
2019-02-09T08:54:15.177Z,100218.53
2019-02-09T08:56:21.931Z,100221.59
2019-02-09T08:58:30.136Z,100216.72
2019-02-09T09:00:40.617Z,100218.83
2019-02-09T09:02:47.498Z,100211.98
2019-02-09T09:04:54.247Z,100216.41
2019-02-09T09:07:00.700Z,100197.70
2019-02-09T09:09:10.427Z,100209.27
2019-02-09T09:11:17.048Z,100197.97
2019-02-09T09:13:23.638Z,100202.25
2019-02-09T09:15:50.835Z,100202.88
2019-02-09T09:17:58.140Z,100210.34
2019-02-09T09:20:19.702Z,100209.17
2019-02-09T09:22:26.300Z,100214.67
2019-02-09T09:24:37.620Z,100211.55
2019-02-09T09:26:45.710Z,100196.02
2019-02-09T09:28:52.698Z,100189.37
2019-02-09T09:30:59.440Z,100193.98
2019-02-09T09:33:06.543Z,100194.99
2019-02-09T09:35:14.515Z,100194.32
2019-02-09T09:37:22.760Z,100189.08
2019-02-09T09:39:29.654Z,100187.33
2019-02-09T09:41:36.094Z,100185.11
2019-02-09T09:43:43.040Z,100172.34
2019-02-09T09:45:50.625Z,100178.07
2019-02-09T09:47:57.357Z,100174.02
2019-02-09T09:50:05.671Z,100178.77
2019-02-09T09:52:12.380Z,100184.69
2019-02-09T09:54:18.850Z,100181.31
2019-02-09T09:56:25.850Z,100183.14
2019-02-09T09:58:34.260Z,100183.48
2019-02-09T10:00:44.057Z,100183.13
2019-02-09T10:02:53.419Z,100176.47
2019-02-09T10:05:00.179Z,100173.02
2019-02-09T10:07:06.978Z,100174.19
2019-02-09T10:09:16.738Z,100172.08
2019-02-09T10:11:24.040Z,100179.44
2019-02-09T10:13:31.003Z,100184.95
2019-02-09T10:15:38.797Z,100174.93
2019-02-09T10:17:45.740Z,100176.86
2019-02-09T10:19:52.740Z,100169.97
2019-02-09T10:21:59.527Z,100178.46
2019-02-09T10:24:06.470Z,100186.83
2019-02-09T10:26:13.467Z,100186.02
2019-02-09T10:28:21.899Z,100175.73
2019-02-09T10:30:31.684Z,100176.36
2019-02-09T10:32:44.529Z,100178.39
2019-02-09T10:34:50.948Z,100185.34
2019-02-09T10:36:57.615Z,100187.52
2019-02-09T10:39:08.222Z,100187.22
2019-02-09T10:41:16.945Z,100186.28
2019-02-09T10:43:24.574Z,100187.80
2019-02-09T10:45:32.756Z,100184.01
2019-02-09T10:47:39.836Z,100189.14
2019-02-09T10:49:46.694Z,100185.36
2019-02-09T10:51:53.774Z,100178.66
2019-02-09T10:54:01.855Z,100180.19
2019-02-09T10:56:08.780Z,100177.30
2019-02-09T10:58:15.618Z,100169.67
2019-02-09T11:00:43.314Z,100164.41
2019-02-09T11:02:52.215Z,100165.83
2019-02-09T11:04:58.777Z,100156.78
2019-02-09T11:07:06.037Z,100162.41
2019-02-09T11:09:17.158Z,100158.67
2019-02-09T11:11:23.912Z,100151.81
2019-02-09T11:13:31.115Z,100148.71
2019-02-09T11:15:39.240Z,100150.01
2019-02-09T11:17:46.235Z,100152.98
2019-02-09T11:19:54.034Z,100151.63
2019-02-09T11:22:02.234Z,100146.67
2019-02-09T11:24:09.354Z,100147.68
2019-02-09T11:26:16.062Z,100148.41
2019-02-09T11:28:24.137Z,100139.18
2019-02-09T11:30:32.617Z,100148.30
2019-02-09T11:32:39.813Z,100146.48
2019-02-09T11:34:46.598Z,100138.42
2019-02-09T11:36:53.455Z,100145.73
2019-02-09T11:39:00.500Z,100144.25
2019-02-09T11:41:08.415Z,100144.66
2019-02-09T11:43:16.813Z,100137.91
2019-02-09T11:45:30.377Z,100138.53
2019-02-09T11:47:38.514Z,100140.55
2019-02-09T11:49:46.876Z,100138.04
2019-02-09T11:51:53.293Z,100142.69
2019-02-09T11:54:00.396Z,100145.70
2019-02-09T11:56:07.455Z,100152.78
2019-02-09T11:58:16.233Z,100147.38
2019-02-09T12:00:29.235Z,100141.77
2019-02-09T12:02:36.123Z,100141.42
2019-02-09T12:04:43.338Z,100145.84
2019-02-09T12:06:52.913Z,100139.91
2019-02-09T12:09:00.234Z,100132.66
2019-02-09T12:11:07.114Z,100144.73
2019-02-09T12:13:13.814Z,100137.66
2019-02-09T12:15:36.834Z,100142.28
2019-02-09T12:17:44.474Z,100155.64
2019-02-09T12:19:51.314Z,100155.72
2019-02-09T12:24:52.014Z,100153.20
2019-02-09T12:27:00.433Z,100151.45
2019-02-09T12:29:08.795Z,100162.92
2019-02-09T12:31:15.954Z,100158.94
2019-02-09T12:33:23.588Z,100155.55
2019-02-09T12:35:30.689Z,100142.33
2019-02-09T12:37:37.959Z,100144.09
2019-02-09T12:39:45.093Z,100142.25
2019-02-09T12:41:51.703Z,100143.23
2019-02-09T12:43:58.557Z,100134.72
2019-02-09T12:46:09.738Z,100131.60
2019-02-09T12:48:16.621Z,100129.66
2019-02-09T12:50:27.414Z,100132.03
2019-02-09T12:52:34.194Z,100134.96
2019-02-09T12:54:51.914Z,100130.69
2019-02-09T12:57:00.665Z,100131.94
2019-02-09T12:59:14.622Z,100136.49
2019-02-09T13:01:16.859Z,100139.14
2019-02-09T13:03:31.260Z,100133.98
2019-02-09T13:05:36.453Z,100136.07
2019-02-09T13:07:43.699Z,100132.39
2019-02-09T13:09:51.374Z,100140.42
2019-02-09T13:11:59.095Z,100141.13
2019-02-09T13:14:06.197Z,100139.68
2019-02-09T13:16:13.833Z,100134.55
2019-02-09T13:18:21.254Z,100139.34
2019-02-09T13:20:35.001Z,100138.44
2019-02-09T13:22:42.495Z,100142.97
2019-02-09T13:24:49.435Z,100142.66
2019-02-09T13:26:56.785Z,100145.39
2019-02-09T13:29:03.682Z,100141.41
2019-02-09T13:31:10.756Z,100139.03
2019-02-09T13:33:17.855Z,100135.55
2019-02-09T13:35:24.674Z,100145.69
2019-02-09T13:37:31.834Z,100144.74
2019-02-09T13:39:38.794Z,100143.19
2019-02-09T13:41:47.396Z,100146.42
2019-02-09T13:43:54.514Z,100157.64
2019-02-09T13:46:02.194Z,100152.34
2019-02-09T13:48:09.996Z,100158.27
2019-02-09T13:50:18.274Z,100159.14
2019-02-09T13:52:25.600Z,100159.02
2019-02-09T13:54:32.515Z,100162.77
2019-02-09T13:56:39.393Z,100165.30
2019-02-09T13:58:47.214Z,100167.98
2019-02-09T14:00:54.684Z,100162.43
2019-02-09T14:03:03.159Z,100160.95
2019-02-09T14:05:12.462Z,100171.74
2019-02-09T14:07:21.127Z,100166.84
2019-02-09T14:09:27.952Z,100164.73
2019-02-09T14:11:35.032Z,100170.34
2019-02-09T14:13:41.902Z,100170.06
2019-02-09T14:15:49.857Z,100169.00
2019-02-09T14:17:58.752Z,100164.70
2019-02-09T14:20:07.942Z,100176.63
2019-02-09T14:22:14.841Z,100181.84
2019-02-09T14:24:22.213Z,100188.28
2019-02-09T14:26:29.943Z,100180.86
2019-02-09T14:28:37.272Z,100191.82
2019-02-09T14:30:44.542Z,100193.64
2019-02-09T14:32:51.939Z,100194.59
2019-02-09T14:34:59.290Z,100201.70
2019-02-09T14:37:06.812Z,100197.47
2019-02-09T14:39:14.242Z,100192.72
2019-02-09T14:41:21.332Z,100191.91
2019-02-09T14:43:28.320Z,100186.33
2019-02-09T14:45:42.143Z,100186.86
2019-02-09T14:47:49.362Z,100203.05
2019-02-09T14:49:57.562Z,100200.91
2019-02-09T14:52:05.202Z,100201.84
2019-02-09T14:54:12.393Z,100195.80
2019-02-09T14:56:19.632Z,100197.09
2019-02-09T14:58:26.610Z,100199.31
2019-02-09T15:00:52.018Z,100202.30
2019-02-09T15:02:59.657Z,100205.74
2019-02-09T15:05:10.639Z,100199.67
2019-02-09T15:07:18.098Z,100197.54
2019-02-09T15:09:25.089Z,100198.84
2019-02-09T15:11:32.228Z,100194.55
2019-02-09T15:13:39.189Z,100197.59
2019-02-09T15:16:05.681Z,100192.38
2019-02-09T15:18:13.749Z,100202.36
2019-02-09T15:20:30.593Z,100198.45
2019-02-09T15:22:38.257Z,100203.30
2019-02-09T15:24:45.376Z,100198.11
2019-02-09T15:26:52.679Z,100200.79
2019-02-09T15:29:00.022Z,100205.19
2019-02-09T15:31:07.271Z,100203.15
2019-02-09T15:33:14.230Z,100202.92
2019-02-09T15:35:21.490Z,100194.86
2019-02-09T15:37:28.918Z,100201.94
2019-02-09T15:39:36.242Z,100202.63
2019-02-09T15:41:43.800Z,100197.17
2019-02-09T15:43:51.610Z,100195.08
2019-02-09T15:45:59.139Z,100199.59
2019-02-09T15:48:07.071Z,100202.70
2019-02-09T15:50:16.921Z,100201.82
2019-02-09T15:52:24.440Z,100199.73
2019-02-09T15:54:31.866Z,100199.84
2019-02-09T15:56:39.219Z,100195.19
2019-02-09T15:58:46.576Z,100204.45
2019-02-09T16:00:53.487Z,100210.53
2019-02-09T16:03:01.988Z,100215.83
2019-02-09T16:05:12.896Z,100213.72
2019-02-09T16:07:20.313Z,100212.86
2019-02-09T16:09:27.568Z,100217.67
2019-02-09T16:11:34.519Z,100219.02
2019-02-09T16:13:45.745Z,100217.68
2019-02-09T16:15:52.657Z,100219.03
2019-02-09T16:18:00.690Z,100217.83
2019-02-09T16:20:12.240Z,100224.44
2019-02-09T16:22:20.258Z,100231.08
2019-02-09T16:24:29.116Z,100224.73
2019-02-09T16:26:36.538Z,100224.44
2019-02-09T16:28:44.968Z,100237.56
2019-02-09T16:30:52.486Z,100236.80
2019-02-09T16:32:59.667Z,100233.46
2019-02-09T16:35:11.585Z,100237.48
2019-02-09T16:37:18.677Z,100241.89
2019-02-09T16:39:25.814Z,100244.96
2019-02-09T16:41:34.324Z,100257.08
2019-02-09T16:43:42.681Z,100258.85
2019-02-09T16:45:49.823Z,100262.39
2019-02-09T16:47:56.908Z,100268.52
2019-02-09T16:50:05.132Z,100270.22
2019-02-09T16:52:12.406Z,100272.84
2019-02-09T16:54:19.576Z,100269.34
2019-02-09T16:57:14.186Z,100266.24
2019-02-09T16:59:21.832Z,100266.56
2019-02-09T17:01:29.039Z,100271.28
2019-02-09T17:03:36.539Z,100264.83
2019-02-09T17:05:43.838Z,100266.12
2019-02-09T17:07:51.112Z,100264.87
2019-02-09T17:09:58.539Z,100266.12
2019-02-09T17:12:07.248Z,100269.08
2019-02-09T17:14:15.388Z,100268.09
2019-02-09T17:16:22.579Z,100274.37
2019-02-09T17:18:29.647Z,100273.38
2019-02-09T17:20:37.226Z,100273.77
2019-02-09T17:22:44.238Z,100277.14
2019-02-09T17:24:51.319Z,100275.35
2019-02-09T17:26:58.959Z,100282.64
2019-02-09T17:29:06.521Z,100281.30
2019-02-09T17:31:13.639Z,100281.33
2019-02-09T17:33:20.835Z,100289.91
2019-02-09T17:35:28.260Z,100313.16
2019-02-09T17:37:35.440Z,100317.39
2019-02-09T17:39:42.999Z,100319.94
2019-02-09T17:41:50.341Z,100320.67
2019-02-09T17:43:57.887Z,100317.16
2019-02-09T17:46:11.639Z,100311.95
2019-02-09T17:48:19.241Z,100302.41
2019-02-09T17:50:26.498Z,100306.31
2019-02-09T17:52:33.978Z,100302.84
2019-02-09T17:54:41.639Z,100298.07
2019-02-09T17:56:48.600Z,100292.39
2019-02-09T17:58:55.879Z,100298.84
2019-02-09T18:01:23.499Z,100297.82
2019-02-09T18:03:30.445Z,100296.03
2019-02-09T18:05:37.978Z,100299.49
2019-02-09T18:07:45.158Z,100297.87
2019-02-09T18:09:52.288Z,100300.52
2019-02-09T18:12:00.179Z,100298.45
2019-02-09T18:14:08.160Z,100291.64
2019-02-09T18:16:16.840Z,100298.03
2019-02-09T18:18:25.258Z,100293.27
2019-02-09T18:20:32.379Z,100295.67
2019-02-09T18:22:40.348Z,100306.27
2019-02-09T18:24:47.499Z,100301.64
2019-02-09T18:26:55.039Z,100301.34
2019-02-09T18:29:02.965Z,100296.68
2019-02-09T18:31:10.067Z,100307.59
2019-02-09T18:33:33.019Z,100308.06
2019-02-09T18:38:13.278Z,100308.66
2019-02-09T18:40:26.786Z,100313.07
2019-02-09T18:42:33.839Z,100310.43
2019-02-09T18:44:41.034Z,100306.14
2019-02-09T18:46:48.327Z,100313.15
2019-02-09T18:48:55.479Z,100314.48
2019-02-09T18:51:03.520Z,100308.66
2019-02-09T18:53:10.693Z,100300.31
2019-02-09T18:55:26.478Z,100302.73
2019-02-09T18:57:33.543Z,100300.91
2019-02-09T18:59:40.720Z,100299.61
2019-02-09T19:01:47.806Z,100294.42
2019-02-09T19:03:54.959Z,100298.75
2019-02-09T19:06:02.179Z,100296.09
2019-02-09T19:08:10.998Z,100303.67
2019-02-09T19:10:21.859Z,100297.94
2019-02-09T19:12:30.224Z,100308.69
2019-02-09T19:14:37.439Z,100295.64
2019-02-09T19:16:44.580Z,100295.19
2019-02-09T19:18:51.618Z,100295.59
2019-02-09T19:21:00.839Z,100301.59
2019-02-09T19:23:08.260Z,100296.68
2019-02-09T19:25:21.778Z,100300.14
2019-02-09T19:27:28.960Z,100300.86
2019-02-09T19:29:36.060Z,100296.95
2019-02-09T19:31:43.099Z,100294.79
2019-02-09T19:33:50.740Z,100299.12
2019-02-09T19:35:57.786Z,100303.88
2019-02-09T19:38:05.619Z,100299.06
2019-02-09T19:40:20.459Z,100306.38
2019-02-09T19:42:28.160Z,100311.58
2019-02-09T19:44:35.459Z,100314.56
2019-02-09T19:46:42.460Z,100306.28
2019-02-09T19:48:50.099Z,100302.42
2019-02-09T19:50:57.447Z,100307.63
2019-02-09T19:53:04.439Z,100313.27
2019-02-09T19:55:18.558Z,100308.94
2019-02-09T19:57:25.920Z,100312.02
2019-02-09T19:59:33.026Z,100312.99
2019-02-09T20:01:40.235Z,100314.34
2019-02-09T20:03:47.280Z,100309.69
2019-02-09T20:05:54.700Z,100315.52
2019-02-09T20:08:02.241Z,100318.16
2019-02-09T20:10:13.625Z,100319.13
2019-02-09T20:12:21.166Z,100321.29
2019-02-09T20:14:28.919Z,100316.67
2019-02-09T20:16:36.538Z,100323.70
2019-02-09T20:18:43.899Z,100318.15
2019-02-09T20:20:51.438Z,100323.88
2019-02-09T20:22:58.733Z,100317.45
2019-02-09T20:25:10.201Z,100316.59
2019-02-09T20:27:17.750Z,100322.74
2019-02-09T20:29:25.438Z,100321.09
2019-02-09T20:31:32.382Z,100323.73
2019-02-09T20:33:39.559Z,100322.39
2019-02-09T20:35:46.600Z,100333.30
2019-02-09T20:37:54.266Z,100331.05
2019-02-09T20:40:01.168Z,100334.12
2019-02-09T20:42:09.377Z,100337.20
2019-02-09T20:44:18.676Z,100332.55
2019-02-09T20:46:27.110Z,100333.45
2019-02-09T20:48:34.606Z,100330.47
2019-02-09T20:50:41.646Z,100335.66
2019-02-09T20:52:48.933Z,100332.70
2019-02-09T20:54:55.939Z,100338.76
2019-02-09T20:57:03.011Z,100338.80
2019-02-09T20:59:11.558Z,100334.10
2019-02-09T21:01:18.600Z,100341.53
2019-02-09T21:03:25.711Z,100334.58
2019-02-09T21:05:36.468Z,100338.50
2019-02-09T21:07:41.717Z,100338.44
2019-02-09T21:09:50.061Z,100339.70
2019-02-09T21:11:57.450Z,100338.00
2019-02-09T21:14:05.819Z,100337.14
2019-02-09T21:16:13.067Z,100340.62
2019-02-09T21:18:20.085Z,100336.63
2019-02-09T21:20:27.384Z,100340.53
2019-02-09T21:22:34.730Z,100338.44
2019-02-09T21:24:41.920Z,100341.03
2019-02-09T21:26:49.111Z,100345.79
2019-02-09T21:28:56.251Z,100343.62
2019-02-09T21:31:03.668Z,100344.99
2019-02-09T21:33:10.719Z,100342.50
2019-02-09T21:35:19.105Z,100349.39
2019-02-09T21:37:26.113Z,100352.41
2019-02-09T21:39:34.083Z,100340.73
2019-02-09T21:41:41.416Z,100335.87
2019-02-09T21:43:48.713Z,100337.86
2019-02-09T21:45:56.405Z,100336.09
2019-02-09T21:48:03.580Z,100341.17
2019-02-09T21:50:17.475Z,100340.70
2019-02-09T21:52:24.659Z,100340.06
2019-02-09T21:54:31.667Z,100333.92
2019-02-09T21:56:38.780Z,100336.08
2019-02-09T21:58:46.504Z,100328.63
2019-02-09T22:00:53.866Z,100328.94
2019-02-09T22:03:01.319Z,100323.27
2019-02-09T22:05:12.102Z,100326.20
2019-02-09T22:07:19.521Z,100323.95
2019-02-09T22:09:27.236Z,100330.88
2019-02-09T22:11:34.623Z,100338.11
2019-02-09T22:13:41.951Z,100332.81
2019-02-09T22:15:49.260Z,100330.64
2019-02-09T22:17:56.231Z,100342.73
2019-02-09T22:20:03.321Z,100341.43
2019-02-09T22:22:10.530Z,100330.11
2019-02-09T22:24:18.530Z,100331.89
2019-02-09T22:26:25.599Z,100331.41
2019-02-09T22:28:32.671Z,100331.89
2019-02-09T22:30:39.628Z,100338.34
2019-02-09T22:32:46.613Z,100339.69
2019-02-09T22:34:55.329Z,100335.80
2019-02-09T22:37:02.619Z,100337.09
2019-02-09T22:39:10.359Z,100333.58
2019-02-09T22:41:18.284Z,100337.52
2019-02-09T22:43:26.243Z,100341.48
2019-02-09T22:45:34.983Z,100344.52
2019-02-09T22:47:41.643Z,100342.86
2019-02-09T22:49:48.503Z,100358.52
2019-02-09T22:51:57.016Z,100363.81
2019-02-09T22:54:03.825Z,100360.69
2019-02-09T22:56:10.552Z,100356.83
2019-02-09T22:58:18.628Z,100359.00
2019-02-09T23:00:51.764Z,100362.42
2019-02-09T23:02:59.677Z,100366.23
2019-02-09T23:05:10.677Z,100367.14
2019-02-09T23:07:17.387Z,100370.69
2019-02-09T23:09:24.016Z,100370.35
2019-02-09T23:11:30.636Z,100378.23
2019-02-09T23:13:37.682Z,100376.55
2019-02-09T23:15:44.211Z,100379.63
2019-02-09T23:17:52.314Z,100390.93
2019-02-09T23:19:59.280Z,100386.16
2019-02-09T23:22:06.300Z,100379.66
2019-02-09T23:24:13.288Z,100384.87
2019-02-09T23:26:20.005Z,100382.73
2019-02-09T23:28:27.689Z,100374.51
2019-02-09T23:30:34.646Z,100373.60
2019-02-09T23:32:41.476Z,100366.63
2019-02-09T23:34:48.300Z,100368.75
2019-02-09T23:36:54.802Z,100358.83
2019-02-09T23:39:02.610Z,100359.66
2019-02-09T23:41:10.780Z,100372.65
2019-02-09T23:43:17.671Z,100372.61
2019-02-09T23:45:24.238Z,100371.69
2019-02-09T23:47:31.563Z,100375.47
2019-02-09T23:49:38.629Z,100395.80
2019-02-09T23:51:46.623Z,100388.89
2019-02-09T23:53:53.553Z,100391.03
2019-02-09T23:56:02.051Z,100390.16
2019-02-09T23:58:08.783Z,100390.63
